sensor_id;sensor_type;location;lat;lon;timestamp;temperature;humidity
52323;DHT22;38263;52.920;6.238;2022-11-15T00:01:28;7.30;99.90
52323;DHT22;38263;52.920;6.238;2022-11-15T00:03:54;7.50;99.90
52323;DHT22;38263;52.920;6.238;2022-11-15T00:06:19;7.60;99.90
52323;DHT22;38263;52.920;6.238;2022-11-15T00:08:45;7.60;99.90
52323;DHT22;38263;52.920;6.238;2022-11-15T00:11:11;7.70;99.90
52323;DHT22;38263;52.920;6.238;2022-11-15T00:13:37;7.80;99.90
52323;DHT22;38263;52.920;6.238;2022-11-15T00:16:03;7.70;99.90
52323;DHT22;38263;52.920;6.238;2022-11-15T00:18:29;7.70;99.90
52323;DHT22;38263;52.920;6.238;2022-11-15T00:20:56;7.70;99.90
52323;DHT22;38263;52.920;6.238;2022-11-15T00:23:22;7.60;99.90
52323;DHT22;38263;52.920;6.238;2022-11-15T00:25:51;7.70;99.90
52323;DHT22;38263;52.920;6.238;2022-11-15T00:28:20;7.70;99.90
52323;DHT22;38263;52.920;6.238;2022-11-15T00:30:45;7.80;99.90
52323;DHT22;38263;52.920;6.238;2022-11-15T00:33:11;7.80;99.90
52323;DHT22;38263;52.920;6.238;2022-11-15T00:35:36;7.90;99.90
52323;DHT22;38263;52.920;6.238;2022-11-15T00:38:02;7.80;99.90
52323;DHT22;38263;52.920;6.238;2022-11-15T00:40:28;7.90;99.90
52323;DHT22;38263;52.920;6.238;2022-11-15T00:42:54;7.70;99.90
52323;DHT22;38263;52.920;6.238;2022-11-15T00:45:19;7.70;99.90
52323;DHT22;38263;52.920;6.238;2022-11-15T00:47:45;7.60;99.90
52323;DHT22;38263;52.920;6.238;2022-11-15T00:50:12;7.70;99.90
52323;DHT22;38263;52.920;6.238;2022-11-15T00:52:37;7.60;99.90
52323;DHT22;38263;52.920;6.238;2022-11-15T00:55:03;7.60;99.90
52323;DHT22;38263;52.920;6.238;2022-11-15T00:57:29;7.70;99.90
52323;DHT22;38263;52.920;6.238;2022-11-15T00:59:54;7.40;99.90
52323;DHT22;38263;52.920;6.238;2022-11-15T01:02:20;7.70;99.90
52323;DHT22;38263;52.920;6.238;2022-11-15T01:04:45;7.80;99.90
52323;DHT22;38263;52.920;6.238;2022-11-15T01:07:11;7.80;99.90
52323;DHT22;38263;52.920;6.238;2022-11-15T01:09:37;7.70;99.90
52323;DHT22;38263;52.920;6.238;2022-11-15T01:12:02;7.70;99.90
52323;DHT22;38263;52.920;6.238;2022-11-15T01:14:28;7.60;99.90
52323;DHT22;38263;52.920;6.238;2022-11-15T01:16:53;7.60;99.90
52323;DHT22;38263;52.920;6.238;2022-11-15T01:19:19;7.40;99.90
52323;DHT22;38263;52.920;6.238;2022-11-15T01:21:45;7.40;99.90
52323;DHT22;38263;52.920;6.238;2022-11-15T01:24:12;7.50;99.90
52323;DHT22;38263;52.920;6.238;2022-11-15T01:26:38;7.30;99.90
52323;DHT22;38263;52.920;6.238;2022-11-15T01:29:04;7.40;99.90
52323;DHT22;38263;52.920;6.238;2022-11-15T01:31:29;7.60;99.90
52323;DHT22;38263;52.920;6.238;2022-11-15T01:33:55;7.50;99.90
52323;DHT22;38263;52.920;6.238;2022-11-15T01:36:21;7.30;99.90
52323;DHT22;38263;52.920;6.238;2022-11-15T01:38:52;7.50;99.90
52323;DHT22;38263;52.920;6.238;2022-11-15T01:41:21;7.30;99.90
52323;DHT22;38263;52.920;6.238;2022-11-15T01:43:54;7.40;99.90
52323;DHT22;38263;52.920;6.238;2022-11-15T01:48:52;7.50;99.90
52323;DHT22;38263;52.920;6.238;2022-11-15T01:51:22;7.40;99.90
52323;DHT22;38263;52.920;6.238;2022-11-15T01:53:53;7.40;99.90
52323;DHT22;38263;52.920;6.238;2022-11-15T01:56:25;7.20;99.90
52323;DHT22;38263;52.920;6.238;2022-11-15T01:58:53;7.30;99.90
52323;DHT22;38263;52.920;6.238;2022-11-15T02:01:21;7.40;99.90
52323;DHT22;38263;52.920;6.238;2022-11-15T02:03:56;7.40;99.90
52323;DHT22;38263;52.920;6.238;2022-11-15T02:06:23;7.30;99.90
52323;DHT22;38263;52.920;6.238;2022-11-15T02:08:49;7.20;99.90
52323;DHT22;38263;52.920;6.238;2022-11-15T02:11:16;7.40;99.90
52323;DHT22;38263;52.920;6.238;2022-11-15T02:13:42;7.40;99.90
52323;DHT22;38263;52.920;6.238;2022-11-15T02:21:09;7.40;99.90
52323;DHT22;38263;52.920;6.238;2022-11-15T02:24:16;7.50;99.90
52323;DHT22;38263;52.920;6.238;2022-11-15T02:32:45;7.50;99.90
52323;DHT22;38263;52.920;6.238;2022-11-15T02:35:30;7.30;99.90
52323;DHT22;38263;52.920;6.238;2022-11-15T02:43:15;7.40;99.90
52323;DHT22;38263;52.920;6.238;2022-11-15T02:46:06;7.60;99.90
52323;DHT22;38263;52.920;6.238;2022-11-15T02:51:01;7.50;99.90
52323;DHT22;38263;52.920;6.238;2022-11-15T02:53:27;7.60;99.90
52323;DHT22;38263;52.920;6.238;2022-11-15T02:55:54;7.70;99.90
52323;DHT22;38263;52.920;6.238;2022-11-15T03:03:59;7.70;99.90
52323;DHT22;38263;52.920;6.238;2022-11-15T03:06:29;7.80;99.90
52323;DHT22;38263;52.920;6.238;2022-11-15T03:09:05;7.60;99.90
52323;DHT22;38263;52.920;6.238;2022-11-15T03:11:38;7.70;99.90
52323;DHT22;38263;52.920;6.238;2022-11-15T03:14:20;7.70;99.90
52323;DHT22;38263;52.920;6.238;2022-11-15T03:17:05;7.80;99.90
52323;DHT22;38263;52.920;6.238;2022-11-15T03:19:46;7.70;99.90
52323;DHT22;38263;52.920;6.238;2022-11-15T03:24:43;7.80;99.90
52323;DHT22;38263;52.920;6.238;2022-11-15T03:27:14;7.90;99.90
52323;DHT22;38263;52.920;6.238;2022-11-15T03:29:44;7.80;99.90
52323;DHT22;38263;52.920;6.238;2022-11-15T03:32:20;8.00;99.90
52323;DHT22;38263;52.920;6.238;2022-11-15T03:40:17;7.80;99.90
52323;DHT22;38263;52.920;6.238;2022-11-15T03:43:00;8.10;99.90
52323;DHT22;38263;52.920;6.238;2022-11-15T03:45:31;8.10;99.90
52323;DHT22;38263;52.920;6.238;2022-11-15T03:48:02;8.00;99.90
52323;DHT22;38263;52.920;6.238;2022-11-15T03:50:30;8.10;99.90
52323;DHT22;38263;52.920;6.238;2022-11-15T03:52:57;8.10;99.90
52323;DHT22;38263;52.920;6.238;2022-11-15T03:55:23;8.00;99.90
52323;DHT22;38263;52.920;6.238;2022-11-15T03:57:51;8.10;99.90
52323;DHT22;38263;52.920;6.238;2022-11-15T04:00:17;8.10;99.90
52323;DHT22;38263;52.920;6.238;2022-11-15T04:02:42;8.10;99.90
52323;DHT22;38263;52.920;6.238;2022-11-15T04:05:08;8.20;99.90
52323;DHT22;38263;52.920;6.238;2022-11-15T04:07:34;8.10;99.90
52323;DHT22;38263;52.920;6.238;2022-11-15T04:09:59;8.00;99.90
52323;DHT22;38263;52.920;6.238;2022-11-15T04:12:32;8.10;99.90
52323;DHT22;38263;52.920;6.238;2022-11-15T04:15:00;8.20;99.90
52323;DHT22;38263;52.920;6.238;2022-11-15T04:17:40;8.30;99.90
52323;DHT22;38263;52.920;6.238;2022-11-15T04:20:24;8.40;99.90
52323;DHT22;38263;52.920;6.238;2022-11-15T04:23:14;8.30;99.90
52323;DHT22;38263;52.920;6.238;2022-11-15T04:26:01;8.30;99.90
52323;DHT22;38263;52.920;6.238;2022-11-15T04:28:26;8.30;99.90
52323;DHT22;38263;52.920;6.238;2022-11-15T04:30:52;8.40;99.90
52323;DHT22;38263;52.920;6.238;2022-11-15T04:33:18;8.40;99.90
52323;DHT22;38263;52.920;6.238;2022-11-15T04:35:43;8.40;99.90
52323;DHT22;38263;52.920;6.238;2022-11-15T04:38:29;8.50;99.90
52323;DHT22;38263;52.920;6.238;2022-11-15T04:40:54;8.50;99.90
52323;DHT22;38263;52.920;6.238;2022-11-15T04:43:20;8.40;99.90
52323;DHT22;38263;52.920;6.238;2022-11-15T04:45:46;8.60;99.90
52323;DHT22;38263;52.920;6.238;2022-11-15T04:48:11;8.60;99.90
52323;DHT22;38263;52.920;6.238;2022-11-15T04:50:37;8.70;99.90
52323;DHT22;38263;52.920;6.238;2022-11-15T04:53:02;8.70;99.90
52323;DHT22;38263;52.920;6.238;2022-11-15T04:55:28;8.90;99.90
52323;DHT22;38263;52.920;6.238;2022-11-15T04:57:58;8.80;99.90
52323;DHT22;38263;52.920;6.238;2022-11-15T05:00:24;8.70;99.90
52323;DHT22;38263;52.920;6.238;2022-11-15T05:02:50;8.80;99.90
52323;DHT22;38263;52.920;6.238;2022-11-15T05:05:35;8.90;99.90
52323;DHT22;38263;52.920;6.238;2022-11-15T05:08:00;8.90;99.90
52323;DHT22;38263;52.920;6.238;2022-11-15T05:10:26;8.80;99.90
52323;DHT22;38263;52.920;6.238;2022-11-15T05:12:51;8.90;99.90
52323;DHT22;38263;52.920;6.238;2022-11-15T05:15:17;9.00;99.90
52323;DHT22;38263;52.920;6.238;2022-11-15T05:17:43;9.10;99.90
52323;DHT22;38263;52.920;6.238;2022-11-15T05:20:09;9.00;99.90
52323;DHT22;38263;52.920;6.238;2022-11-15T05:22:34;9.30;99.90
52323;DHT22;38263;52.920;6.238;2022-11-15T05:25:00;9.30;99.90
52323;DHT22;38263;52.920;6.238;2022-11-15T05:27:25;9.10;99.90
52323;DHT22;38263;52.920;6.238;2022-11-15T05:29:51;9.30;99.90
52323;DHT22;38263;52.920;6.238;2022-11-15T05:32:17;9.00;99.90
52323;DHT22;38263;52.920;6.238;2022-11-15T05:34:43;9.30;99.90
52323;DHT22;38263;52.920;6.238;2022-11-15T05:37:09;9.20;99.90
52323;DHT22;38263;52.920;6.238;2022-11-15T05:39:34;9.30;99.90
52323;DHT22;38263;52.920;6.238;2022-11-15T05:42:06;9.50;99.90
52323;DHT22;38263;52.920;6.238;2022-11-15T05:44:33;9.50;99.90
52323;DHT22;38263;52.920;6.238;2022-11-15T05:46:59;9.80;99.90
52323;DHT22;38263;52.920;6.238;2022-11-15T05:49:29;9.50;99.90
52323;DHT22;38263;52.920;6.238;2022-11-15T05:51:56;9.50;99.90
52323;DHT22;38263;52.920;6.238;2022-11-15T05:54:23;9.50;99.90
52323;DHT22;38263;52.920;6.238;2022-11-15T05:56:50;9.50;99.90
52323;DHT22;38263;52.920;6.238;2022-11-15T05:59:16;9.60;99.90
52323;DHT22;38263;52.920;6.238;2022-11-15T06:01:42;9.60;99.90
52323;DHT22;38263;52.920;6.238;2022-11-15T06:04:08;9.70;99.90
52323;DHT22;38263;52.920;6.238;2022-11-15T06:06:33;9.70;99.90
52323;DHT22;38263;52.920;6.238;2022-11-15T06:08:59;9.90;99.90
52323;DHT22;38263;52.920;6.238;2022-11-15T06:11:24;9.80;99.90
52323;DHT22;38263;52.920;6.238;2022-11-15T06:13:50;9.90;99.90
52323;DHT22;38263;52.920;6.238;2022-11-15T06:16:15;10.00;99.90
52323;DHT22;38263;52.920;6.238;2022-11-15T06:18:41;10.00;99.90
52323;DHT22;38263;52.920;6.238;2022-11-15T06:21:06;10.20;99.90
52323;DHT22;38263;52.920;6.238;2022-11-15T06:23:33;10.10;99.90
52323;DHT22;38263;52.920;6.238;2022-11-15T06:25:59;10.40;99.90
52323;DHT22;38263;52.920;6.238;2022-11-15T06:28:29;10.10;99.90
52323;DHT22;38263;52.920;6.238;2022-11-15T06:30:55;10.10;99.90
52323;DHT22;38263;52.920;6.238;2022-11-15T06:33:22;10.10;99.90
52323;DHT22;38263;52.920;6.238;2022-11-15T06:35:47;10.00;99.90
52323;DHT22;38263;52.920;6.238;2022-11-15T06:38:13;10.10;99.90
52323;DHT22;38263;52.920;6.238;2022-11-15T06:40:39;10.10;99.90
52323;DHT22;38263;52.920;6.238;2022-11-15T06:43:05;10.00;99.90
52323;DHT22;38263;52.920;6.238;2022-11-15T06:45:31;10.20;99.90
52323;DHT22;38263;52.920;6.238;2022-11-15T06:47:57;10.20;99.90
52323;DHT22;38263;52.920;6.238;2022-11-15T06:50:23;10.10;99.90
52323;DHT22;38263;52.920;6.238;2022-11-15T06:52:49;10.40;99.90
52323;DHT22;38263;52.920;6.238;2022-11-15T06:55:14;10.20;99.90
52323;DHT22;38263;52.920;6.238;2022-11-15T06:57:47;10.20;99.90
52323;DHT22;38263;52.920;6.238;2022-11-15T07:00:13;10.40;99.90
52323;DHT22;38263;52.920;6.238;2022-11-15T07:02:39;10.50;99.90
52323;DHT22;38263;52.920;6.238;2022-11-15T07:07:31;10.40;99.90
52323;DHT22;38263;52.920;6.238;2022-11-15T07:09:56;10.50;99.90
52323;DHT22;38263;52.920;6.238;2022-11-15T07:12:22;10.50;99.90
52323;DHT22;38263;52.920;6.238;2022-11-15T07:14:47;10.40;99.90
52323;DHT22;38263;52.920;6.238;2022-11-15T07:17:13;10.40;99.90
52323;DHT22;38263;52.920;6.238;2022-11-15T07:22:04;10.40;99.90
52323;DHT22;38263;52.920;6.238;2022-11-15T07:24:30;10.50;99.90
52323;DHT22;38263;52.920;6.238;2022-11-15T07:26:55;10.50;99.90
52323;DHT22;38263;52.920;6.238;2022-11-15T07:29:21;10.50;99.90
52323;DHT22;38263;52.920;6.238;2022-11-15T07:31:46;10.50;99.90
52323;DHT22;38263;52.920;6.238;2022-11-15T07:34:12;10.50;99.90
52323;DHT22;38263;52.920;6.238;2022-11-15T07:39:03;10.60;99.90
52323;DHT22;38263;52.920;6.238;2022-11-15T07:41:29;10.90;99.90
52323;DHT22;38263;52.920;6.238;2022-11-15T07:43:55;10.60;99.90
52323;DHT22;38263;52.920;6.238;2022-11-15T07:46:20;10.50;99.90
52323;DHT22;38263;52.920;6.238;2022-11-15T07:51:16;10.80;99.90
52323;DHT22;38263;52.920;6.238;2022-11-15T07:56:09;10.90;99.90
52323;DHT22;38263;52.920;6.238;2022-11-15T07:58:35;10.80;99.90
52323;DHT22;38263;52.920;6.238;2022-11-15T08:13:14;10.80;99.90
52323;DHT22;38263;52.920;6.238;2022-11-15T08:18:10;10.90;99.90
52323;DHT22;38263;52.920;6.238;2022-11-15T08:20:37;10.90;99.90
52323;DHT22;38263;52.920;6.238;2022-11-15T08:25:30;10.90;99.90
52323;DHT22;38263;52.920;6.238;2022-11-15T08:27:59;11.10;99.90
52323;DHT22;38263;52.920;6.238;2022-11-15T08:35:18;11.10;99.90
52323;DHT22;38263;52.920;6.238;2022-11-15T08:37:44;11.20;99.90
52323;DHT22;38263;52.920;6.238;2022-11-15T08:40:10;11.10;99.90
52323;DHT22;38263;52.920;6.238;2022-11-15T08:45:03;11.20;99.90
52323;DHT22;38263;52.920;6.238;2022-11-15T08:47:28;11.20;99.90
52323;DHT22;38263;52.920;6.238;2022-11-15T08:49:54;11.20;99.90
52323;DHT22;38263;52.920;6.238;2022-11-15T08:52:19;11.40;99.90
52323;DHT22;38263;52.920;6.238;2022-11-15T08:54:45;11.20;99.90
52323;DHT22;38263;52.920;6.238;2022-11-15T08:59:37;11.30;99.90
52323;DHT22;38263;52.920;6.238;2022-11-15T09:04:30;11.30;99.90
52323;DHT22;38263;52.920;6.238;2022-11-15T09:09:21;11.40;99.90
52323;DHT22;38263;52.920;6.238;2022-11-15T09:11:47;11.30;99.90
52323;DHT22;38263;52.920;6.238;2022-11-15T09:14:13;11.40;99.90
52323;DHT22;38263;52.920;6.238;2022-11-15T09:16:39;11.40;99.90
52323;DHT22;38263;52.920;6.238;2022-11-15T09:19:05;11.40;99.90
52323;DHT22;38263;52.920;6.238;2022-11-15T09:21:31;11.40;99.90
52323;DHT22;38263;52.920;6.238;2022-11-15T09:23:57;11.50;99.90
52323;DHT22;38263;52.920;6.238;2022-11-15T09:28:49;11.50;99.90
52323;DHT22;38263;52.920;6.238;2022-11-15T09:31:14;11.60;99.90
52323;DHT22;38263;52.920;6.238;2022-11-15T09:33:43;11.30;99.90
52323;DHT22;38263;52.920;6.238;2022-11-15T09:36:09;11.60;99.90
52323;DHT22;38263;52.920;6.238;2022-11-15T09:38:35;11.50;99.90
52323;DHT22;38263;52.920;6.238;2022-11-15T09:49:22;11.50;99.90
52323;DHT22;38263;52.920;6.238;2022-11-15T09:51:53;11.60;99.90
52323;DHT22;38263;52.920;6.238;2022-11-15T09:54:29;11.60;99.90
52323;DHT22;38263;52.920;6.238;2022-11-15T09:57:17;11.80;99.90
52323;DHT22;38263;52.920;6.238;2022-11-15T10:00:22;11.70;99.90
52323;DHT22;38263;52.920;6.238;2022-11-15T10:05:28;11.70;99.90
52323;DHT22;38263;52.920;6.238;2022-11-15T10:08:10;12.00;99.90
52323;DHT22;38263;52.920;6.238;2022-11-15T10:10:44;11.80;99.90
52323;DHT22;38263;52.920;6.238;2022-11-15T10:13:33;11.90;99.90
52323;DHT22;38263;52.920;6.238;2022-11-15T10:21:29;12.00;99.90
52323;DHT22;38263;52.920;6.238;2022-11-15T10:23:56;11.80;99.90
52323;DHT22;38263;52.920;6.238;2022-11-15T10:26:23;12.00;99.90
52323;DHT22;38263;52.920;6.238;2022-11-15T10:28:49;11.90;99.90
52323;DHT22;38263;52.920;6.238;2022-11-15T10:31:23;12.00;99.90
52323;DHT22;38263;52.920;6.238;2022-11-15T10:33:49;12.10;99.90
52323;DHT22;38263;52.920;6.238;2022-11-15T10:36:18;12.10;99.90
52323;DHT22;38263;52.920;6.238;2022-11-15T10:41:21;12.10;99.90
52323;DHT22;38263;52.920;6.238;2022-11-15T10:46:33;12.10;99.90
52323;DHT22;38263;52.920;6.238;2022-11-15T10:49:19;12.10;99.90
52323;DHT22;38263;52.920;6.238;2022-11-15T10:54:19;12.10;99.90
52323;DHT22;38263;52.920;6.238;2022-11-15T10:56:50;12.20;99.90
52323;DHT22;38263;52.920;6.238;2022-11-15T10:59:28;12.20;99.90
52323;DHT22;38263;52.920;6.238;2022-11-15T11:01:55;12.20;99.90
52323;DHT22;38263;52.920;6.238;2022-11-15T11:04:20;12.10;99.90
52323;DHT22;38263;52.920;6.238;2022-11-15T11:09:35;12.20;99.90
52323;DHT22;38263;52.920;6.238;2022-11-15T11:12:02;12.20;99.90
52323;DHT22;38263;52.920;6.238;2022-11-15T11:14:31;12.10;99.90
52323;DHT22;38263;52.920;6.238;2022-11-15T11:22:05;12.30;99.90
52323;DHT22;38263;52.920;6.238;2022-11-15T11:24:45;12.30;99.90
52323;DHT22;38263;52.920;6.238;2022-11-15T11:30:08;12.30;99.90
52323;DHT22;38263;52.920;6.238;2022-11-15T11:35:19;12.30;99.90
52323;DHT22;38263;52.920;6.238;2022-11-15T11:37:56;12.40;99.90
52323;DHT22;38263;52.920;6.238;2022-11-15T11:40:33;12.30;99.90
52323;DHT22;38263;52.920;6.238;2022-11-15T11:43:30;12.10;99.90
52323;DHT22;38263;52.920;6.238;2022-11-15T11:46:23;12.20;99.90
52323;DHT22;38263;52.920;6.238;2022-11-15T11:49:10;12.30;99.90
52323;DHT22;38263;52.920;6.238;2022-11-15T11:52:29;12.20;99.90
52323;DHT22;38263;52.920;6.238;2022-11-15T11:54:45;12.20;99.90
52323;DHT22;38263;52.920;6.238;2022-11-15T12:00:23;12.20;99.90
52323;DHT22;38263;52.920;6.238;2022-11-15T12:05:43;12.50;99.90
52323;DHT22;38263;52.920;6.238;2022-11-15T12:08:31;12.80;99.90
52323;DHT22;38263;52.920;6.238;2022-11-15T12:11:14;12.80;99.90
52323;DHT22;38263;52.920;6.238;2022-11-15T12:13:42;13.10;99.90
52323;DHT22;38263;52.920;6.238;2022-11-15T12:16:19;13.00;99.90
52323;DHT22;38263;52.920;6.238;2022-11-15T12:18:50;13.00;99.90
52323;DHT22;38263;52.920;6.238;2022-11-15T12:21:38;12.80;99.90
52323;DHT22;38263;52.920;6.238;2022-11-15T12:24:09;12.90;99.90
52323;DHT22;38263;52.920;6.238;2022-11-15T12:26:49;12.90;99.90
52323;DHT22;38263;52.920;6.238;2022-11-15T12:31:48;12.80;99.90
52323;DHT22;38263;52.920;6.238;2022-11-15T12:36:49;12.90;99.90
52323;DHT22;38263;52.920;6.238;2022-11-15T12:39:15;12.90;99.90
52323;DHT22;38263;52.920;6.238;2022-11-15T12:41:44;12.90;99.90
52323;DHT22;38263;52.920;6.238;2022-11-15T13:17:50;13.10;99.90
52323;DHT22;38263;52.920;6.238;2022-11-15T13:20:18;13.00;99.90
52323;DHT22;38263;52.920;6.238;2022-11-15T13:30:53;13.00;99.90
52323;DHT22;38263;52.920;6.238;2022-11-15T13:35:50;12.90;99.90
52323;DHT22;38263;52.920;6.238;2022-11-15T13:38:29;13.10;99.90
52323;DHT22;38263;52.920;6.238;2022-11-15T13:46:07;12.80;99.90
52323;DHT22;38263;52.920;6.238;2022-11-15T13:48:33;12.90;99.90
52323;DHT22;38263;52.920;6.238;2022-11-15T13:51:01;12.90;99.90
52323;DHT22;38263;52.920;6.238;2022-11-15T13:53:29;12.80;99.90
52323;DHT22;38263;52.920;6.238;2022-11-15T13:55:57;12.80;99.90
52323;DHT22;38263;52.920;6.238;2022-11-15T13:58:23;12.80;99.90
52323;DHT22;38263;52.920;6.238;2022-11-15T14:01:01;12.80;99.90
52323;DHT22;38263;52.920;6.238;2022-11-15T14:03:33;12.60;99.90
52323;DHT22;38263;52.920;6.238;2022-11-15T14:06:20;12.60;99.90
52323;DHT22;38263;52.920;6.238;2022-11-15T14:11:36;12.60;99.90
52323;DHT22;38263;52.920;6.238;2022-11-15T14:16:39;12.40;99.90
52323;DHT22;38263;52.920;6.238;2022-11-15T14:19:06;12.40;99.90
52323;DHT22;38263;52.920;6.238;2022-11-15T14:24:18;12.50;99.90
52323;DHT22;38263;52.920;6.238;2022-11-15T14:26:44;12.60;99.90
52323;DHT22;38263;52.920;6.238;2022-11-15T14:29:27;12.30;99.90
52323;DHT22;38263;52.920;6.238;2022-11-15T14:32:05;12.10;99.90
52323;DHT22;38263;52.920;6.238;2022-11-15T14:34:32;12.00;99.90
52323;DHT22;38263;52.920;6.238;2022-11-15T14:36:57;12.20;99.90
52323;DHT22;38263;52.920;6.238;2022-11-15T14:39:23;12.20;99.90
52323;DHT22;38263;52.920;6.238;2022-11-15T14:41:50;12.10;99.90
52323;DHT22;38263;52.920;6.238;2022-11-15T14:44:16;12.10;99.90
52323;DHT22;38263;52.920;6.238;2022-11-15T14:46:44;12.20;99.90
52323;DHT22;38263;52.920;6.238;2022-11-15T14:49:09;12.10;99.90
52323;DHT22;38263;52.920;6.238;2022-11-15T14:51:35;12.20;99.90
52323;DHT22;38263;52.920;6.238;2022-11-15T14:54:01;12.10;99.90
52323;DHT22;38263;52.920;6.238;2022-11-15T14:56:26;12.10;99.90
52323;DHT22;38263;52.920;6.238;2022-11-15T14:58:52;12.10;99.90
52323;DHT22;38263;52.920;6.238;2022-11-15T15:01:21;12.10;99.90
52323;DHT22;38263;52.920;6.238;2022-11-15T15:03:48;12.10;99.90
52323;DHT22;38263;52.920;6.238;2022-11-15T15:06:14;12.10;99.90
52323;DHT22;38263;52.920;6.238;2022-11-15T15:08:40;12.10;99.90
52323;DHT22;38263;52.920;6.238;2022-11-15T15:11:23;11.90;99.90
52323;DHT22;38263;52.920;6.238;2022-11-15T15:13:49;11.70;99.90
52323;DHT22;38263;52.920;6.238;2022-11-15T15:16:15;11.80;99.90
52323;DHT22;38263;52.920;6.238;2022-11-15T15:18:41;12.00;99.90
52323;DHT22;38263;52.920;6.238;2022-11-15T15:21:19;11.80;99.90
52323;DHT22;38263;52.920;6.238;2022-11-15T15:23:45;11.70;99.90
52323;DHT22;38263;52.920;6.238;2022-11-15T15:26:10;12.00;99.90
52323;DHT22;38263;52.920;6.238;2022-11-15T15:28:36;11.80;99.90
52323;DHT22;38263;52.920;6.238;2022-11-15T15:31:03;11.70;99.90
52323;DHT22;38263;52.920;6.238;2022-11-15T15:33:29;11.70;99.90
52323;DHT22;38263;52.920;6.238;2022-11-15T15:38:21;11.60;99.90
52323;DHT22;38263;52.920;6.238;2022-11-15T15:40:47;11.70;99.90
52323;DHT22;38263;52.920;6.238;2022-11-15T15:45:39;11.70;99.90
52323;DHT22;38263;52.920;6.238;2022-11-15T15:50:34;11.60;99.90
52323;DHT22;38263;52.920;6.238;2022-11-15T15:53:02;11.60;99.90
52323;DHT22;38263;52.920;6.238;2022-11-15T15:55:28;11.50;99.90
52323;DHT22;38263;52.920;6.238;2022-11-15T15:57:54;11.50;99.90
52323;DHT22;38263;52.920;6.238;2022-11-15T16:00:21;11.30;99.90
52323;DHT22;38263;52.920;6.238;2022-11-15T16:02:48;11.60;99.90
52323;DHT22;38263;52.920;6.238;2022-11-15T16:05:14;11.50;99.90
52323;DHT22;38263;52.920;6.238;2022-11-15T16:07:40;11.50;99.90
52323;DHT22;38263;52.920;6.238;2022-11-15T16:10:17;11.40;99.90
52323;DHT22;38263;52.920;6.238;2022-11-15T16:12:42;11.40;99.90
52323;DHT22;38263;52.920;6.238;2022-11-15T16:15:08;11.60;99.90
52323;DHT22;38263;52.920;6.238;2022-11-15T16:17:38;11.60;99.90
52323;DHT22;38263;52.920;6.238;2022-11-15T16:20:05;11.60;99.90
52323;DHT22;38263;52.920;6.238;2022-11-15T16:22:31;11.70;99.90
52323;DHT22;38263;52.920;6.238;2022-11-15T16:24:57;11.80;99.90
52323;DHT22;38263;52.920;6.238;2022-11-15T16:27:22;11.80;99.90
52323;DHT22;38263;52.920;6.238;2022-11-15T16:29:48;11.70;99.90
52323;DHT22;38263;52.920;6.238;2022-11-15T16:32:15;11.70;99.90
52323;DHT22;38263;52.920;6.238;2022-11-15T16:34:41;11.60;99.90
52323;DHT22;38263;52.920;6.238;2022-11-15T16:37:21;11.90;99.90
52323;DHT22;38263;52.920;6.238;2022-11-15T16:39:47;11.90;99.90
52323;DHT22;38263;52.920;6.238;2022-11-15T16:42:12;11.90;99.90
52323;DHT22;38263;52.920;6.238;2022-11-15T16:44:38;12.00;99.90
52323;DHT22;38263;52.920;6.238;2022-11-15T16:47:03;11.90;99.90
52323;DHT22;38263;52.920;6.238;2022-11-15T16:49:29;12.00;99.90
52323;DHT22;38263;52.920;6.238;2022-11-15T16:51:54;11.90;99.90
52323;DHT22;38263;52.920;6.238;2022-11-15T16:54:20;12.00;99.90
52323;DHT22;38263;52.920;6.238;2022-11-15T16:56:45;12.00;99.90
52323;DHT22;38263;52.920;6.238;2022-11-15T16:59:15;12.10;99.90
52323;DHT22;38263;52.920;6.238;2022-11-15T17:01:41;11.90;99.90
52323;DHT22;38263;52.920;6.238;2022-11-15T17:04:17;12.20;99.90
52323;DHT22;38263;52.920;6.238;2022-11-15T17:06:45;12.10;99.90
52323;DHT22;38263;52.920;6.238;2022-11-15T17:09:18;12.30;99.90
52323;DHT22;38263;52.920;6.238;2022-11-15T17:11:44;12.30;99.90
52323;DHT22;38263;52.920;6.238;2022-11-15T17:14:11;12.30;99.90
52323;DHT22;38263;52.920;6.238;2022-11-15T17:16:37;12.30;99.90
52323;DHT22;38263;52.920;6.238;2022-11-15T17:19:10;12.20;99.90
52323;DHT22;38263;52.920;6.238;2022-11-15T17:21:36;12.30;99.90
52323;DHT22;38263;52.920;6.238;2022-11-15T17:24:01;12.30;99.90
52323;DHT22;38263;52.920;6.238;2022-11-15T17:26:27;12.30;99.90
52323;DHT22;38263;52.920;6.238;2022-11-15T17:28:56;12.20;99.90
52323;DHT22;38263;52.920;6.238;2022-11-15T17:31:22;12.20;99.90
52323;DHT22;38263;52.920;6.238;2022-11-15T17:33:47;12.30;99.90
52323;DHT22;38263;52.920;6.238;2022-11-15T17:36:13;12.30;99.90
52323;DHT22;38263;52.920;6.238;2022-11-15T17:38:41;12.20;99.90
52323;DHT22;38263;52.920;6.238;2022-11-15T17:41:12;12.10;99.90
52323;DHT22;38263;52.920;6.238;2022-11-15T17:46:06;12.30;99.90
52323;DHT22;38263;52.920;6.238;2022-11-15T17:48:32;12.30;99.90
52323;DHT22;38263;52.920;6.238;2022-11-15T17:51:10;12.20;99.90
52323;DHT22;38263;52.920;6.238;2022-11-15T17:53:38;12.10;99.90
52323;DHT22;38263;52.920;6.238;2022-11-15T17:56:09;12.30;99.90
52323;DHT22;38263;52.920;6.238;2022-11-15T17:58:36;12.30;99.90
52323;DHT22;38263;52.920;6.238;2022-11-15T18:01:06;12.40;99.90
52323;DHT22;38263;52.920;6.238;2022-11-15T18:03:36;12.40;99.90
52323;DHT22;38263;52.920;6.238;2022-11-15T18:06:03;12.30;99.90
52323;DHT22;38263;52.920;6.238;2022-11-15T18:08:29;12.40;99.90
52323;DHT22;38263;52.920;6.238;2022-11-15T18:13:27;12.30;99.90
52323;DHT22;38263;52.920;6.238;2022-11-15T18:15:53;12.30;99.90
52323;DHT22;38263;52.920;6.238;2022-11-15T18:18:20;12.20;99.90
52323;DHT22;38263;52.920;6.238;2022-11-15T18:20:46;12.30;99.90
52323;DHT22;38263;52.920;6.238;2022-11-15T18:23:11;12.30;99.90
52323;DHT22;38263;52.920;6.238;2022-11-15T18:25:37;12.40;99.90
52323;DHT22;38263;52.920;6.238;2022-11-15T18:28:02;12.50;99.90
52323;DHT22;38263;52.920;6.238;2022-11-15T18:32:54;12.50;99.90
52323;DHT22;38263;52.920;6.238;2022-11-15T18:35:19;12.40;99.90
52323;DHT22;38263;52.920;6.238;2022-11-15T18:37:45;12.40;99.90
52323;DHT22;38263;52.920;6.238;2022-11-15T18:40:10;12.40;99.90
52323;DHT22;38263;52.920;6.238;2022-11-15T18:45:02;12.50;99.90
52323;DHT22;38263;52.920;6.238;2022-11-15T18:47:28;12.40;99.90
52323;DHT22;38263;52.920;6.238;2022-11-15T18:49:55;12.60;99.90
52323;DHT22;38263;52.920;6.238;2022-11-15T18:52:23;12.40;99.90
52323;DHT22;38263;52.920;6.238;2022-11-15T18:57:15;12.40;99.90
52323;DHT22;38263;52.920;6.238;2022-11-15T18:59:41;12.50;99.90
52323;DHT22;38263;52.920;6.238;2022-11-15T19:02:12;12.50;99.90
52323;DHT22;38263;52.920;6.238;2022-11-15T19:04:37;12.70;99.90
52323;DHT22;38263;52.920;6.238;2022-11-15T19:07:03;12.50;99.90
52323;DHT22;38263;52.920;6.238;2022-11-15T19:14:24;12.50;99.90
52323;DHT22;38263;52.920;6.238;2022-11-15T19:19:24;12.70;99.90
52323;DHT22;38263;52.920;6.238;2022-11-15T19:21:51;12.50;99.90